sensor_id;sensor_type;location;lat;lon;timestamp;P1;durP1;ratioP1;P2;durP2;ratioP2
73898;SDS011;62234;50.892;12.724;2023-12-20T00:01:26;1.70;;;0.93;;
73898;SDS011;62234;50.892;12.724;2023-12-20T00:03:52;2.55;;;1.70;;
73898;SDS011;62234;50.892;12.724;2023-12-20T00:06:18;1.98;;;1.38;;
73898;SDS011;62234;50.892;12.724;2023-12-20T00:08:44;2.75;;;1.63;;
73898;SDS011;62234;50.892;12.724;2023-12-20T00:11:09;2.13;;;1.05;;
73898;SDS011;62234;50.892;12.724;2023-12-20T00:13:35;1.63;;;1.13;;
73898;SDS011;62234;50.892;12.724;2023-12-20T00:16:01;1.58;;;1.10;;
73898;SDS011;62234;50.892;12.724;2023-12-20T00:18:27;1.08;;;0.80;;
73898;SDS011;62234;50.892;12.724;2023-12-20T00:20:53;2.17;;;0.82;;
73898;SDS011;62234;50.892;12.724;2023-12-20T00:23:19;1.45;;;1.05;;
73898;SDS011;62234;50.892;12.724;2023-12-20T00:25:45;1.20;;;0.77;;
73898;SDS011;62234;50.892;12.724;2023-12-20T00:28:11;1.48;;;0.85;;
73898;SDS011;62234;50.892;12.724;2023-12-20T00:30:37;0.63;;;0.63;;
73898;SDS011;62234;50.892;12.724;2023-12-20T00:33:03;1.25;;;0.88;;
73898;SDS011;62234;50.892;12.724;2023-12-20T00:35:29;1.17;;;0.52;;
73898;SDS011;62234;50.892;12.724;2023-12-20T00:37:54;1.10;;;0.85;;
73898;SDS011;62234;50.892;12.724;2023-12-20T00:40:20;1.50;;;0.85;;
73898;SDS011;62234;50.892;12.724;2023-12-20T00:42:47;1.05;;;0.90;;
73898;SDS011;62234;50.892;12.724;2023-12-20T00:45:13;0.73;;;0.60;;
73898;SDS011;62234;50.892;12.724;2023-12-20T00:47:39;0.60;;;0.60;;
73898;SDS011;62234;50.892;12.724;2023-12-20T00:50:05;0.90;;;0.55;;
73898;SDS011;62234;50.892;12.724;2023-12-20T00:52:31;1.30;;;0.90;;
73898;SDS011;62234;50.892;12.724;2023-12-20T00:54:57;0.68;;;0.68;;
73898;SDS011;62234;50.892;12.724;2023-12-20T00:57:23;0.57;;;0.50;;
73898;SDS011;62234;50.892;12.724;2023-12-20T00:59:49;0.50;;;0.32;;
73898;SDS011;62234;50.892;12.724;2023-12-20T01:02:15;1.30;;;0.95;;
73898;SDS011;62234;50.892;12.724;2023-12-20T01:04:41;0.68;;;0.43;;
73898;SDS011;62234;50.892;12.724;2023-12-20T01:07:07;0.30;;;0.28;;
73898;SDS011;62234;50.892;12.724;2023-12-20T01:09:33;0.40;;;0.38;;
73898;SDS011;62234;50.892;12.724;2023-12-20T01:11:59;0.60;;;0.47;;
73898;SDS011;62234;50.892;12.724;2023-12-20T01:14:25;0.68;;;0.45;;
73898;SDS011;62234;50.892;12.724;2023-12-20T01:16:51;0.38;;;0.30;;
73898;SDS011;62234;50.892;12.724;2023-12-20T01:19:17;0.90;;;0.65;;
73898;SDS011;62234;50.892;12.724;2023-12-20T01:21:42;0.63;;;0.40;;
73898;SDS011;62234;50.892;12.724;2023-12-20T01:24:08;0.35;;;0.35;;
73898;SDS011;62234;50.892;12.724;2023-12-20T01:26:34;1.17;;;0.28;;
73898;SDS011;62234;50.892;12.724;2023-12-20T01:29:00;0.50;;;0.28;;
73898;SDS011;62234;50.892;12.724;2023-12-20T01:31:26;0.47;;;0.40;;
73898;SDS011;62234;50.892;12.724;2023-12-20T01:33:53;2.80;;;0.40;;
73898;SDS011;62234;50.892;12.724;2023-12-20T01:36:19;0.45;;;0.30;;
73898;SDS011;62234;50.892;12.724;2023-12-20T01:38:44;0.20;;;0.10;;
73898;SDS011;62234;50.892;12.724;2023-12-20T01:41:10;0.63;;;0.20;;
73898;SDS011;62234;50.892;12.724;2023-12-20T01:43:36;0.35;;;0.25;;
73898;SDS011;62234;50.892;12.724;2023-12-20T01:46:02;0.63;;;0.20;;
73898;SDS011;62234;50.892;12.724;2023-12-20T01:48:28;0.30;;;0.13;;
73898;SDS011;62234;50.892;12.724;2023-12-20T01:50:57;0.20;;;0.20;;
73898;SDS011;62234;50.892;12.724;2023-12-20T01:53:23;0.40;;;0.28;;
73898;SDS011;62234;50.892;12.724;2023-12-20T01:55:50;0.22;;;0.22;;
73898;SDS011;62234;50.892;12.724;2023-12-20T01:58:16;0.10;;;0.10;;
73898;SDS011;62234;50.892;12.724;2023-12-20T02:00:42;0.20;;;0.10;;
73898;SDS011;62234;50.892;12.724;2023-12-20T02:03:08;0.30;;;0.30;;
73898;SDS011;62234;50.892;12.724;2023-12-20T02:05:35;0.22;;;0.15;;
73898;SDS011;62234;50.892;12.724;2023-12-20T02:08:04;0.15;;;0.03;;
73898;SDS011;62234;50.892;12.724;2023-12-20T02:10:30;0.43;;;0.10;;
73898;SDS011;62234;50.892;12.724;2023-12-20T02:12:57;1.83;;;0.15;;
73898;SDS011;62234;50.892;12.724;2023-12-20T02:15:22;0.50;;;0.17;;
73898;SDS011;62234;50.892;12.724;2023-12-20T02:17:48;0.25;;;0.00;;
73898;SDS011;62234;50.892;12.724;2023-12-20T02:20:15;0.30;;;0.20;;
73898;SDS011;62234;50.892;12.724;2023-12-20T02:22:41;0.00;;;0.00;;
73898;SDS011;62234;50.892;12.724;2023-12-20T02:25:06;0.10;;;0.10;;
73898;SDS011;62234;50.892;12.724;2023-12-20T02:27:32;0.20;;;0.10;;
73898;SDS011;62234;50.892;12.724;2023-12-20T02:29:58;0.20;;;0.10;;
73898;SDS011;62234;50.892;12.724;2023-12-20T02:32:24;0.10;;;0.10;;
73898;SDS011;62234;50.892;12.724;2023-12-20T02:34:54;0.10;;;0.10;;
73898;SDS011;62234;50.892;12.724;2023-12-20T02:37:20;0.10;;;0.10;;
73898;SDS011;62234;50.892;12.724;2023-12-20T02:39:46;0.57;;;0.17;;
73898;SDS011;62234;50.892;12.724;2023-12-20T02:42:12;0.32;;;0.10;;
73898;SDS011;62234;50.892;12.724;2023-12-20T02:44:38;1.35;;;0.10;;
73898;SDS011;62234;50.892;12.724;2023-12-20T02:47:04;0.10;;;0.00;;
73898;SDS011;62234;50.892;12.724;2023-12-20T02:49:30;0.20;;;0.10;;
73898;SDS011;62234;50.892;12.724;2023-12-20T02:51:56;0.10;;;0.10;;
73898;SDS011;62234;50.892;12.724;2023-12-20T02:54:22;0.00;;;0.00;;
73898;SDS011;62234;50.892;12.724;2023-12-20T02:56:48;0.10;;;0.10;;
73898;SDS011;62234;50.892;12.724;2023-12-20T02:59:14;0.20;;;0.20;;
73898;SDS011;62234;50.892;12.724;2023-12-20T03:01:43;0.00;;;0.00;;
73898;SDS011;62234;50.892;12.724;2023-12-20T03:04:09;0.17;;;0.10;;
73898;SDS011;62234;50.892;12.724;2023-12-20T03:06:35;0.05;;;0.00;;
73898;SDS011;62234;50.892;12.724;2023-12-20T03:09:01;0.52;;;0.17;;
73898;SDS011;62234;50.892;12.724;2023-12-20T03:11:27;0.22;;;0.00;;
73898;SDS011;62234;50.892;12.724;2023-12-20T03:13:54;0.00;;;0.00;;
73898;SDS011;62234;50.892;12.724;2023-12-20T03:16:19;0.00;;;0.00;;
73898;SDS011;62234;50.892;12.724;2023-12-20T03:18:45;0.00;;;0.00;;
73898;SDS011;62234;50.892;12.724;2023-12-20T03:21:11;0.00;;;0.00;;
73898;SDS011;62234;50.892;12.724;2023-12-20T03:23:37;0.05;;;0.05;;
73898;SDS011;62234;50.892;12.724;2023-12-20T03:26:05;0.00;;;0.00;;
73898;SDS011;62234;50.892;12.724;2023-12-20T03:28:32;0.00;;;0.00;;
73898;SDS011;62234;50.892;12.724;2023-12-20T03:30:58;0.10;;;0.00;;
73898;SDS011;62234;50.892;12.724;2023-12-20T03:33:24;0.00;;;0.00;;
73898;SDS011;62234;50.892;12.724;2023-12-20T03:35:49;0.00;;;0.00;;
73898;SDS011;62234;50.892;12.724;2023-12-20T03:38:15;0.10;;;0.10;;
73898;SDS011;62234;50.892;12.724;2023-12-20T03:40:41;0.57;;;0.00;;
73898;SDS011;62234;50.892;12.724;2023-12-20T03:43:07;0.00;;;0.00;;
73898;SDS011;62234;50.892;12.724;2023-12-20T03:45:33;0.03;;;0.00;;
73898;SDS011;62234;50.892;12.724;2023-12-20T03:47:59;0.05;;;0.00;;
73898;SDS011;62234;50.892;12.724;2023-12-20T03:50:25;0.10;;;0.00;;
73898;SDS011;62234;50.892;12.724;2023-12-20T03:52:51;0.00;;;0.00;;
73898;SDS011;62234;50.892;12.724;2023-12-20T03:55:17;0.00;;;0.00;;
73898;SDS011;62234;50.892;12.724;2023-12-20T03:57:43;0.00;;;0.00;;
73898;SDS011;62234;50.892;12.724;2023-12-20T04:00:09;0.00;;;0.00;;
73898;SDS011;62234;50.892;12.724;2023-12-20T04:02:36;0.00;;;0.00;;
73898;SDS011;62234;50.892;12.724;2023-12-20T04:05:02;0.20;;;0.10;;
73898;SDS011;62234;50.892;12.724;2023-12-20T04:07:28;0.38;;;0.00;;
73898;SDS011;62234;50.892;12.724;2023-12-20T04:09:54;1.55;;;0.00;;
73898;SDS011;62234;50.892;12.724;2023-12-20T04:12:20;0.00;;;0.00;;
73898;SDS011;62234;50.892;12.724;2023-12-20T04:14:46;0.25;;;0.20;;
73898;SDS011;62234;50.892;12.724;2023-12-20T04:17:12;0.15;;;0.10;;
73898;SDS011;62234;50.892;12.724;2023-12-20T04:19:38;0.20;;;0.05;;
73898;SDS011;62234;50.892;12.724;2023-12-20T04:22:04;0.10;;;0.00;;
73898;SDS011;62234;50.892;12.724;2023-12-20T04:24:30;0.10;;;0.10;;
73898;SDS011;62234;50.892;12.724;2023-12-20T04:26:56;0.00;;;0.00;;
73898;SDS011;62234;50.892;12.724;2023-12-20T04:29:22;0.10;;;0.10;;
73898;SDS011;62234;50.892;12.724;2023-12-20T04:31:48;0.00;;;0.00;;
73898;SDS011;62234;50.892;12.724;2023-12-20T04:34:16;0.00;;;0.00;;
73898;SDS011;62234;50.892;12.724;2023-12-20T04:36:42;0.10;;;0.08;;
73898;SDS011;62234;50.892;12.724;2023-12-20T04:39:08;0.10;;;0.00;;
73898;SDS011;62234;50.892;12.724;2023-12-20T04:41:34;0.10;;;0.10;;
73898;SDS011;62234;50.892;12.724;2023-12-20T04:44:00;0.10;;;0.10;;
73898;SDS011;62234;50.892;12.724;2023-12-20T04:46:26;0.10;;;0.05;;
73898;SDS011;62234;50.892;12.724;2023-12-20T04:48:52;0.00;;;0.00;;
73898;SDS011;62234;50.892;12.724;2023-12-20T04:51:18;0.00;;;0.00;;
73898;SDS011;62234;50.892;12.724;2023-12-20T04:53:44;0.08;;;0.00;;
73898;SDS011;62234;50.892;12.724;2023-12-20T04:56:09;0.10;;;0.00;;
73898;SDS011;62234;50.892;12.724;2023-12-20T04:58:35;0.00;;;0.00;;
73898;SDS011;62234;50.892;12.724;2023-12-20T05:01:01;0.00;;;0.00;;
73898;SDS011;62234;50.892;12.724;2023-12-20T05:03:27;0.05;;;0.00;;
73898;SDS011;62234;50.892;12.724;2023-12-20T05:05:53;0.05;;;0.03;;
73898;SDS011;62234;50.892;12.724;2023-12-20T05:08:19;0.05;;;0.00;;
73898;SDS011;62234;50.892;12.724;2023-12-20T05:10:45;0.00;;;0.00;;
73898;SDS011;62234;50.892;12.724;2023-12-20T05:13:11;0.00;;;0.00;;
73898;SDS011;62234;50.892;12.724;2023-12-20T05:15:37;0.00;;;0.00;;
73898;SDS011;62234;50.892;12.724;2023-12-20T05:18:03;0.08;;;0.00;;
73898;SDS011;62234;50.892;12.724;2023-12-20T05:20:29;0.15;;;0.00;;
73898;SDS011;62234;50.892;12.724;2023-12-20T05:22:55;0.03;;;0.00;;
73898;SDS011;62234;50.892;12.724;2023-12-20T05:25:21;1.92;;;0.00;;
73898;SDS011;62234;50.892;12.724;2023-12-20T05:27:47;0.98;;;0.05;;
73898;SDS011;62234;50.892;12.724;2023-12-20T05:30:13;0.10;;;0.00;;
73898;SDS011;62234;50.892;12.724;2023-12-20T05:32:39;0.00;;;0.00;;
73898;SDS011;62234;50.892;12.724;2023-12-20T05:35:05;0.10;;;0.10;;
73898;SDS011;62234;50.892;12.724;2023-12-20T05:37:32;0.00;;;0.00;;
73898;SDS011;62234;50.892;12.724;2023-12-20T05:39:58;0.03;;;0.00;;
73898;SDS011;62234;50.892;12.724;2023-12-20T05:42:24;0.10;;;0.10;;
73898;SDS011;62234;50.892;12.724;2023-12-20T05:44:49;0.13;;;0.10;;
73898;SDS011;62234;50.892;12.724;2023-12-20T05:47:15;0.05;;;0.05;;
73898;SDS011;62234;50.892;12.724;2023-12-20T05:49:41;0.10;;;0.10;;
73898;SDS011;62234;50.892;12.724;2023-12-20T05:52:07;0.20;;;0.20;;
73898;SDS011;62234;50.892;12.724;2023-12-20T05:54:33;0.40;;;0.20;;
73898;SDS011;62234;50.892;12.724;2023-12-20T05:56:59;0.50;;;0.20;;
73898;SDS011;62234;50.892;12.724;2023-12-20T05:59:25;0.32;;;0.30;;
73898;SDS011;62234;50.892;12.724;2023-12-20T06:01:51;1.48;;;0.20;;
73898;SDS011;62234;50.892;12.724;2023-12-20T06:04:17;0.20;;;0.20;;
73898;SDS011;62234;50.892;12.724;2023-12-20T06:06:43;0.43;;;0.30;;
73898;SDS011;62234;50.892;12.724;2023-12-20T06:09:10;0.20;;;0.20;;
73898;SDS011;62234;50.892;12.724;2023-12-20T06:14:47;0.50;;;0.20;;
73898;SDS011;62234;50.892;12.724;2023-12-20T06:17:12;0.20;;;0.20;;
73898;SDS011;62234;50.892;12.724;2023-12-20T06:19:38;0.55;;;0.47;;
73898;SDS011;62234;50.892;12.724;2023-12-20T06:22:04;0.65;;;0.55;;
73898;SDS011;62234;50.892;12.724;2023-12-20T06:24:30;2.83;;;0.93;;
73898;SDS011;62234;50.892;12.724;2023-12-20T06:26:58;0.88;;;0.52;;
73898;SDS011;62234;50.892;12.724;2023-12-20T06:29:24;3.25;;;1.00;;
73898;SDS011;62234;50.892;12.724;2023-12-20T06:31:50;2.05;;;0.60;;
73898;SDS011;62234;50.892;12.724;2023-12-20T06:34:16;0.55;;;0.40;;
73898;SDS011;62234;50.892;12.724;2023-12-20T06:36:42;0.45;;;0.43;;
73898;SDS011;62234;50.892;12.724;2023-12-20T06:39:08;0.60;;;0.50;;
73898;SDS011;62234;50.892;12.724;2023-12-20T06:41:37;0.95;;;0.93;;
73898;SDS011;62234;50.892;12.724;2023-12-20T06:44:03;0.93;;;0.60;;
73898;SDS011;62234;50.892;12.724;2023-12-20T06:46:29;1.13;;;0.60;;
73898;SDS011;62234;50.892;12.724;2023-12-20T06:48:55;0.73;;;0.50;;
73898;SDS011;62234;50.892;12.724;2023-12-20T06:51:21;0.98;;;0.70;;
73898;SDS011;62234;50.892;12.724;2023-12-20T06:53:50;0.82;;;0.40;;
73898;SDS011;62234;50.892;12.724;2023-12-20T06:56:16;1.85;;;0.63;;
73898;SDS011;62234;50.892;12.724;2023-12-20T06:58:42;0.82;;;0.70;;
73898;SDS011;62234;50.892;12.724;2023-12-20T07:01:11;0.63;;;0.63;;
73898;SDS011;62234;50.892;12.724;2023-12-20T07:03:37;0.82;;;0.52;;
73898;SDS011;62234;50.892;12.724;2023-12-20T07:06:04;0.63;;;0.55;;
73898;SDS011;62234;50.892;12.724;2023-12-20T07:08:30;1.20;;;0.40;;
73898;SDS011;62234;50.892;12.724;2023-12-20T07:10:56;1.20;;;0.57;;
73898;SDS011;62234;50.892;12.724;2023-12-20T07:13:22;1.52;;;0.57;;
73898;SDS011;62234;50.892;12.724;2023-12-20T07:15:48;0.90;;;0.55;;
73898;SDS011;62234;50.892;12.724;2023-12-20T07:18:14;2.38;;;0.50;;
73898;SDS011;62234;50.892;12.724;2023-12-20T07:20:40;2.08;;;0.45;;
73898;SDS011;62234;50.892;12.724;2023-12-20T07:23:06;0.60;;;0.20;;
73898;SDS011;62234;50.892;12.724;2023-12-20T07:25:31;2.15;;;0.40;;
73898;SDS011;62234;50.892;12.724;2023-12-20T07:27:58;2.38;;;1.10;;
73898;SDS011;62234;50.892;12.724;2023-12-20T07:30:24;2.60;;;0.80;;
73898;SDS011;62234;50.892;12.724;2023-12-20T07:32:50;4.65;;;1.58;;
73898;SDS011;62234;50.892;12.724;2023-12-20T07:35:17;1.73;;;0.88;;
73898;SDS011;62234;50.892;12.724;2023-12-20T07:37:43;1.50;;;0.95;;
73898;SDS011;62234;50.892;12.724;2023-12-20T07:40:09;0.85;;;0.73;;
73898;SDS011;62234;50.892;12.724;2023-12-20T07:42:35;2.00;;;0.70;;
73898;SDS011;62234;50.892;12.724;2023-12-20T07:45:01;3.17;;;0.73;;
73898;SDS011;62234;50.892;12.724;2023-12-20T07:47:27;1.67;;;0.93;;
73898;SDS011;62234;50.892;12.724;2023-12-20T07:49:53;1.52;;;0.60;;
73898;SDS011;62234;50.892;12.724;2023-12-20T07:52:19;1.27;;;0.47;;
73898;SDS011;62234;50.892;12.724;2023-12-20T07:54:46;1.42;;;0.43;;
73898;SDS011;62234;50.892;12.724;2023-12-20T07:57:12;0.98;;;0.68;;
73898;SDS011;62234;50.892;12.724;2023-12-20T07:59:38;0.95;;;0.60;;
73898;SDS011;62234;50.892;12.724;2023-12-20T08:02:04;2.97;;;1.67;;
73898;SDS011;62234;50.892;12.724;2023-12-20T08:04:30;0.40;;;0.40;;
73898;SDS011;62234;50.892;12.724;2023-12-20T08:06:56;1.65;;;0.50;;
73898;SDS011;62234;50.892;12.724;2023-12-20T08:09:22;1.67;;;0.63;;
73898;SDS011;62234;50.892;12.724;2023-12-20T08:11:48;1.20;;;0.90;;
73898;SDS011;62234;50.892;12.724;2023-12-20T08:14:14;0.57;;;0.57;;
73898;SDS011;62234;50.892;12.724;2023-12-20T08:16:40;0.90;;;0.73;;
73898;SDS011;62234;50.892;12.724;2023-12-20T08:19:06;3.00;;;0.90;;
73898;SDS011;62234;50.892;12.724;2023-12-20T08:21:32;0.70;;;0.68;;
73898;SDS011;62234;50.892;12.724;2023-12-20T08:23:58;1.02;;;0.75;;
73898;SDS011;62234;50.892;12.724;2023-12-20T08:26:25;1.25;;;0.75;;
73898;SDS011;62234;50.892;12.724;2023-12-20T08:28:51;1.90;;;1.05;;
73898;SDS011;62234;50.892;12.724;2023-12-20T08:31:18;1.25;;;0.82;;
73898;SDS011;62234;50.892;12.724;2023-12-20T08:33:48;0.65;;;0.50;;
73898;SDS011;62234;50.892;12.724;2023-12-20T08:36:18;1.35;;;1.13;;
73898;SDS011;62234;50.892;12.724;2023-12-20T08:38:46;1.25;;;0.70;;
73898;SDS011;62234;50.892;12.724;2023-12-20T08:41:12;1.02;;;0.80;;
73898;SDS011;62234;50.892;12.724;2023-12-20T08:43:38;1.00;;;0.70;;
73898;SDS011;62234;50.892;12.724;2023-12-20T08:46:07;2.25;;;0.95;;
73898;SDS011;62234;50.892;12.724;2023-12-20T08:48:34;2.67;;;0.93;;
73898;SDS011;62234;50.892;12.724;2023-12-20T08:51:00;1.52;;;0.75;;
73898;SDS011;62234;50.892;12.724;2023-12-20T08:53:26;1.30;;;0.95;;
73898;SDS011;62234;50.892;12.724;2023-12-20T08:55:52;1.23;;;0.75;;
73898;SDS011;62234;50.892;12.724;2023-12-20T08:58:18;1.15;;;0.68;;
73898;SDS011;62234;50.892;12.724;2023-12-20T09:00:44;1.45;;;0.28;;
73898;SDS011;62234;50.892;12.724;2023-12-20T09:03:10;0.77;;;0.52;;
73898;SDS011;62234;50.892;12.724;2023-12-20T09:05:36;0.50;;;0.50;;
73898;SDS011;62234;50.892;12.724;2023-12-20T09:08:02;0.93;;;0.52;;
73898;SDS011;62234;50.892;12.724;2023-12-20T09:10:28;0.60;;;0.50;;
73898;SDS011;62234;50.892;12.724;2023-12-20T09:12:54;0.40;;;0.40;;
73898;SDS011;62234;50.892;12.724;2023-12-20T09:15:23;0.57;;;0.40;;
73898;SDS011;62234;50.892;12.724;2023-12-20T09:17:49;3.17;;;0.38;;
73898;SDS011;62234;50.892;12.724;2023-12-20T09:20:14;0.85;;;0.73;;
73898;SDS011;62234;50.892;12.724;2023-12-20T09:22:40;1.38;;;0.60;;
73898;SDS011;62234;50.892;12.724;2023-12-20T09:25:07;0.70;;;0.57;;
73898;SDS011;62234;50.892;12.724;2023-12-20T09:27:33;0.45;;;0.40;;
73898;SDS011;62234;50.892;12.724;2023-12-20T09:29:59;1.02;;;0.80;;
73898;SDS011;62234;50.892;12.724;2023-12-20T09:32:25;3.90;;;0.88;;
73898;SDS011;62234;50.892;12.724;2023-12-20T09:34:51;0.88;;;0.68;;
73898;SDS011;62234;50.892;12.724;2023-12-20T09:37:16;2.10;;;0.73;;
73898;SDS011;62234;50.892;12.724;2023-12-20T09:39:42;1.02;;;0.55;;
73898;SDS011;62234;50.892;12.724;2023-12-20T09:42:08;1.27;;;0.95;;
73898;SDS011;62234;50.892;12.724;2023-12-20T09:44:37;1.35;;;1.02;;
73898;SDS011;62234;50.892;12.724;2023-12-20T09:47:07;0.80;;;0.70;;
73898;SDS011;62234;50.892;12.724;2023-12-20T09:49:33;1.77;;;1.02;;
73898;SDS011;62234;50.892;12.724;2023-12-20T09:52:00;6.85;;;0.73;;
73898;SDS011;62234;50.892;12.724;2023-12-20T09:54:26;1.80;;;1.10;;
73898;SDS011;62234;50.892;12.724;2023-12-20T09:56:54;1.92;;;1.00;;
73898;SDS011;62234;50.892;12.724;2023-12-20T09:59:20;1.40;;;0.93;;
73898;SDS011;62234;50.892;12.724;2023-12-20T10:01:46;4.85;;;0.90;;
73898;SDS011;62234;50.892;12.724;2023-12-20T10:04:12;1.17;;;0.60;;
73898;SDS011;62234;50.892;12.724;2023-12-20T10:06:41;3.10;;;0.90;;
73898;SDS011;62234;50.892;12.724;2023-12-20T10:09:08;3.17;;;0.95;;
73898;SDS011;62234;50.892;12.724;2023-12-20T10:11:35;2.30;;;0.80;;
73898;SDS011;62234;50.892;12.724;2023-12-20T10:14:04;3.35;;;0.95;;
73898;SDS011;62234;50.892;12.724;2023-12-20T10:16:30;2.03;;;1.02;;
73898;SDS011;62234;50.892;12.724;2023-12-20T10:18:57;3.00;;;0.98;;
73898;SDS011;62234;50.892;12.724;2023-12-20T10:21:23;2.08;;;1.00;;
73898;SDS011;62234;50.892;12.724;2023-12-20T10:23:51;0.65;;;0.65;;
73898;SDS011;62234;50.892;12.724;2023-12-20T10:26:24;2.70;;;0.90;;
73898;SDS011;62234;50.892;12.724;2023-12-20T10:28:50;1.55;;;0.95;;
73898;SDS011;62234;50.892;12.724;2023-12-20T10:31:30;4.05;;;0.93;;
73898;SDS011;62234;50.892;12.724;2023-12-20T10:33:57;1.83;;;0.82;;
73898;SDS011;62234;50.892;12.724;2023-12-20T10:36:24;1.63;;;0.90;;
73898;SDS011;62234;50.892;12.724;2023-12-20T10:38:51;2.05;;;0.70;;
73898;SDS011;62234;50.892;12.724;2023-12-20T10:41:18;1.95;;;0.85;;
73898;SDS011;62234;50.892;12.724;2023-12-20T10:43:48;0.43;;;0.43;;
73898;SDS011;62234;50.892;12.724;2023-12-20T10:46:14;2.05;;;0.73;;
73898;SDS011;62234;50.892;12.724;2023-12-20T10:48:41;1.80;;;0.65;;
73898;SDS011;62234;50.892;12.724;2023-12-20T10:51:07;0.50;;;0.50;;
73898;SDS011;62234;50.892;12.724;2023-12-20T10:53:33;3.40;;;0.93;;
73898;SDS011;62234;50.892;12.724;2023-12-20T10:56:01;1.80;;;0.80;;
73898;SDS011;62234;50.892;12.724;2023-12-20T10:58:28;2.13;;;0.80;;
73898;SDS011;62234;50.892;12.724;2023-12-20T11:00:58;0.52;;;0.50;;
73898;SDS011;62234;50.892;12.724;2023-12-20T11:03:26;1.23;;;0.47;;
73898;SDS011;62234;50.892;12.724;2023-12-20T11:08:33;2.05;;;0.90;;
73898;SDS011;62234;50.892;12.724;2023-12-20T11:11:10;3.25;;;0.73;;
73898;SDS011;62234;50.892;12.724;2023-12-20T11:13:55;1.40;;;0.60;;
73898;SDS011;62234;50.892;12.724;2023-12-20T11:16:22;1.80;;;0.70;;
73898;SDS011;62234;50.892;12.724;2023-12-20T11:18:50;2.38;;;0.60;;
73898;SDS011;62234;50.892;12.724;2023-12-20T11:21:16;0.82;;;0.65;;
73898;SDS011;62234;50.892;12.724;2023-12-20T11:23:42;2.97;;;0.80;;
73898;SDS011;62234;50.892;12.724;2023-12-20T11:26:08;2.17;;;0.90;;
73898;SDS011;62234;50.892;12.724;2023-12-20T11:28:34;1.08;;;0.63;;
73898;SDS011;62234;50.892;12.724;2023-12-20T11:31:01;1.38;;;0.85;;
73898;SDS011;62234;50.892;12.724;2023-12-20T11:33:36;2.40;;;0.60;;
73898;SDS011;62234;50.892;12.724;2023-12-20T11:36:02;1.00;;;0.60;;
73898;SDS011;62234;50.892;12.724;2023-12-20T11:38:37;4.60;;;1.00;;
73898;SDS011;62234;50.892;12.724;2023-12-20T11:41:04;1.10;;;0.70;;
73898;SDS011;62234;50.892;12.724;2023-12-20T11:46:06;2.45;;;0.70;;
73898;SDS011;62234;50.892;12.724;2023-12-20T11:48:34;2.95;;;0.70;;
73898;SDS011;62234;50.892;12.724;2023-12-20T11:51:00;2.03;;;0.38;;
73898;SDS011;62234;50.892;12.724;2023-12-20T11:53:26;1.38;;;0.73;;
73898;SDS011;62234;50.892;12.724;2023-12-20T11:55:53;0.95;;;0.47;;
73898;SDS011;62234;50.892;12.724;2023-12-20T11:58:19;3.45;;;0.50;;
73898;SDS011;62234;50.892;12.724;2023-12-20T12:00:45;1.00;;;0.20;;
73898;SDS011;62234;50.892;12.724;2023-12-20T12:03:14;2.90;;;0.45;;
73898;SDS011;62234;50.892;12.724;2023-12-20T12:05:40;2.30;;;0.73;;
73898;SDS011;62234;50.892;12.724;2023-12-20T12:08:06;2.63;;;0.43;;
73898;SDS011;62234;50.892;12.724;2023-12-20T12:10:32;2.15;;;0.50;;
73898;SDS011;62234;50.892;12.724;2023-12-20T12:12:59;1.85;;;0.20;;
73898;SDS011;62234;50.892;12.724;2023-12-20T12:15:25;0.50;;;0.35;;
73898;SDS011;62234;50.892;12.724;2023-12-20T12:17:55;2.08;;;0.57;;
73898;SDS011;62234;50.892;12.724;2023-12-20T12:20:21;2.35;;;0.40;;
73898;SDS011;62234;50.892;12.724;2023-12-20T12:22:57;0.55;;;0.22;;
73898;SDS011;62234;50.892;12.724;2023-12-20T12:25:23;1.30;;;0.70;;
73898;SDS011;62234;50.892;12.724;2023-12-20T12:27:50;0.63;;;0.43;;
73898;SDS011;62234;50.892;12.724;2023-12-20T12:30:16;3.33;;;0.30;;
73898;SDS011;62234;50.892;12.724;2023-12-20T12:32:43;1.73;;;1.45;;
73898;SDS011;62234;50.892;12.724;2023-12-20T12:35:09;7.03;;;1.88;;
73898;SDS011;62234;50.892;12.724;2023-12-20T12:37:37;3.08;;;0.35;;
73898;SDS011;62234;50.892;12.724;2023-12-20T12:40:04;1.95;;;0.30;;
73898;SDS011;62234;50.892;12.724;2023-12-20T12:42:30;0.85;;;0.35;;
73898;SDS011;62234;50.892;12.724;2023-12-20T12:44:56;0.38;;;0.30;;
73898;SDS011;62234;50.892;12.724;2023-12-20T12:47:22;0.43;;;0.43;;
73898;SDS011;62234;50.892;12.724;2023-12-20T12:49:49;2.35;;;0.35;;
73898;SDS011;62234;50.892;12.724;2023-12-20T12:52:18;5.50;;;0.75;;
73898;SDS011;62234;50.892;12.724;2023-12-20T12:54:44;1.77;;;0.30;;
73898;SDS011;62234;50.892;12.724;2023-12-20T12:57:10;0.40;;;0.20;;
73898;SDS011;62234;50.892;12.724;2023-12-20T12:59:36;1.67;;;0.55;;
73898;SDS011;62234;50.892;12.724;2023-12-20T13:02:03;1.77;;;0.47;;
73898;SDS011;62234;50.892;12.724;2023-12-20T13:04:29;0.17;;;0.10;;
73898;SDS011;62234;50.892;12.724;2023-12-20T13:06:55;1.50;;;0.40;;
73898;SDS011;62234;50.892;12.724;2023-12-20T13:09:22;0.52;;;0.20;;
73898;SDS011;62234;50.892;12.724;2023-12-20T13:11:48;1.20;;;0.30;;
73898;SDS011;62234;50.892;12.724;2023-12-20T13:14:14;0.63;;;0.30;;
73898;SDS011;62234;50.892;12.724;2023-12-20T13:16:41;1.80;;;0.68;;
73898;SDS011;62234;50.892;12.724;2023-12-20T13:19:08;1.25;;;0.40;;
73898;SDS011;62234;50.892;12.724;2023-12-20T13:21:34;0.52;;;0.38;;
73898;SDS011;62234;50.892;12.724;2023-12-20T13:24:01;1.25;;;0.20;;
73898;SDS011;62234;50.892;12.724;2023-12-20T13:26:26;0.52;;;0.22;;
73898;SDS011;62234;50.892;12.724;2023-12-20T13:28:53;3.90;;;0.40;;
73898;SDS011;62234;50.892;12.724;2023-12-20T13:31:19;1.23;;;0.47;;
73898;SDS011;62234;50.892;12.724;2023-12-20T13:33:45;3.20;;;0.55;;
73898;SDS011;62234;50.892;12.724;2023-12-20T13:36:11;2.35;;;0.25;;
73898;SDS011;62234;50.892;12.724;2023-12-20T13:38:38;0.30;;;0.13;;
73898;SDS011;62234;50.892;12.724;2023-12-20T13:41:04;0.60;;;0.25;;
73898;SDS011;62234;50.892;12.724;2023-12-20T13:43:33;2.35;;;0.40;;
73898;SDS011;62234;50.892;12.724;2023-12-20T13:46:00;0.20;;;0.20;;
73898;SDS011;62234;50.892;12.724;2023-12-20T13:48:26;0.50;;;0.25;;
73898;SDS011;62234;50.892;12.724;2023-12-20T13:50:52;3.63;;;0.45;;
73898;SDS011;62234;50.892;12.724;2023-12-20T13:53:17;4.43;;;0.30;;
73898;SDS011;62234;50.892;12.724;2023-12-20T13:55:44;0.88;;;0.30;;
73898;SDS011;62234;50.892;12.724;2023-12-20T13:58:10;1.20;;;0.30;;
73898;SDS011;62234;50.892;12.724;2023-12-20T14:00:36;2.42;;;0.40;;
73898;SDS011;62234;50.892;12.724;2023-12-20T14:03:05;2.60;;;0.40;;
73898;SDS011;62234;50.892;12.724;2023-12-20T14:05:32;1.48;;;0.30;;
73898;SDS011;62234;50.892;12.724;2023-12-20T14:07:58;0.82;;;0.65;;
73898;SDS011;62234;50.892;12.724;2023-12-20T14:10:25;0.73;;;0.40;;
73898;SDS011;62234;50.892;12.724;2023-12-20T14:12:54;1.80;;;0.45;;
73898;SDS011;62234;50.892;12.724;2023-12-20T14:15:20;0.35;;;0.20;;
73898;SDS011;62234;50.892;12.724;2023-12-20T14:17:46;0.30;;;0.13;;
73898;SDS011;62234;50.892;12.724;2023-12-20T14:20:12;1.10;;;0.28;;
73898;SDS011;62234;50.892;12.724;2023-12-20T14:22:38;2.20;;;0.40;;
73898;SDS011;62234;50.892;12.724;2023-12-20T14:25:08;1.05;;;0.28;;
73898;SDS011;62234;50.892;12.724;2023-12-20T14:27:36;2.38;;;0.30;;
73898;SDS011;62234;50.892;12.724;2023-12-20T14:30:02;0.30;;;0.28;;
73898;SDS011;62234;50.892;12.724;2023-12-20T14:32:29;0.75;;;0.10;;
73898;SDS011;62234;50.892;12.724;2023-12-20T14:34:55;0.60;;;0.40;;
73898;SDS011;62234;50.892;12.724;2023-12-20T14:37:20;1.27;;;0.25;;